createdAt,value
2019-04-05T00:01:20.691Z,7.40
2019-04-05T00:04:01.203Z,7.40
2019-04-05T00:06:41.820Z,7.50
2019-04-05T00:09:22.407Z,7.50
2019-04-05T00:12:03.643Z,7.50
2019-04-05T00:14:44.145Z,7.50
2019-04-05T00:17:25.155Z,7.50
2019-04-05T00:20:06.000Z,7.50
2019-04-05T00:22:46.495Z,7.50
2019-04-05T00:25:26.791Z,7.60
2019-04-05T00:28:07.479Z,7.60
2019-04-05T00:30:48.767Z,7.60
2019-04-05T00:33:29.148Z,7.60
2019-04-05T00:36:09.872Z,7.60
2019-04-05T00:41:34.127Z,7.60
2019-04-05T00:44:14.841Z,7.60
2019-04-05T00:46:55.774Z,7.50
2019-04-05T00:49:36.316Z,7.50
2019-04-05T00:52:16.645Z,7.50
2019-04-05T00:54:57.115Z,7.50
2019-04-05T00:57:38.328Z,7.50
2019-04-05T01:00:19.118Z,7.50
2019-04-05T01:03:00.113Z,7.40
2019-04-05T01:05:40.811Z,7.40
2019-04-05T01:08:20.971Z,7.40
2019-04-05T01:11:01.495Z,7.40
2019-04-05T01:13:42.275Z,7.50
2019-04-05T01:16:23.109Z,7.50
2019-04-05T01:19:04.143Z,7.50
2019-04-05T01:21:45.371Z,7.50
2019-04-05T01:24:26.207Z,7.50
2019-04-05T01:27:06.940Z,7.50
2019-04-05T01:29:47.171Z,7.50
2019-04-05T01:32:27.826Z,7.50
2019-04-05T01:35:08.205Z,7.50
2019-04-05T01:37:49.002Z,7.50
2019-04-05T01:40:29.567Z,7.50
2019-04-05T01:43:10.324Z,7.50
2019-04-05T01:45:53.976Z,7.50
2019-04-05T01:48:33.811Z,7.60
2019-04-05T01:51:14.647Z,7.60
2019-04-05T01:53:55.347Z,7.60
2019-04-05T01:56:36.179Z,7.60
2019-04-05T01:59:16.975Z,7.60
2019-04-05T02:01:57.647Z,7.70
2019-04-05T02:04:38.408Z,7.70
2019-04-05T02:07:18.636Z,7.70
2019-04-05T02:09:59.079Z,7.70
2019-04-05T02:12:39.860Z,7.70
2019-04-05T02:15:20.111Z,7.70
2019-04-05T02:18:00.864Z,7.70
2019-04-05T02:20:41.444Z,7.70
2019-04-05T02:23:22.064Z,7.60
2019-04-05T02:26:02.947Z,7.60
2019-04-05T02:28:43.489Z,7.60
2019-04-05T02:31:24.189Z,7.50
2019-04-05T02:34:04.835Z,7.40
2019-04-05T02:36:45.543Z,7.40
2019-04-05T02:39:25.995Z,7.40
2019-04-05T02:42:06.896Z,7.40
2019-04-05T02:44:47.624Z,7.40
2019-04-05T02:47:28.329Z,7.30
2019-04-05T02:50:08.895Z,7.40
2019-04-05T02:52:49.140Z,7.40
2019-04-05T02:58:51.289Z,7.30
2019-04-05T03:01:39.404Z,7.20
2019-04-05T03:07:13.918Z,7.10
2019-04-05T03:09:54.472Z,7.00
2019-04-05T03:12:34.921Z,7.00
2019-04-05T03:15:15.341Z,7.00
2019-04-05T03:17:56.197Z,7.00
2019-04-05T03:20:36.660Z,7.10
2019-04-05T03:23:17.327Z,7.10
2019-04-05T03:25:57.700Z,7.20
2019-04-05T03:28:38.117Z,7.20
2019-04-05T03:31:24.599Z,7.20
2019-04-05T03:34:01.551Z,7.20
2019-04-05T03:36:41.940Z,7.30
2019-04-05T03:39:22.461Z,7.20
2019-04-05T03:42:03.287Z,7.20
2019-04-05T03:44:43.548Z,7.10
2019-04-05T03:47:24.217Z,7.00
2019-04-05T03:50:05.000Z,6.80
2019-04-05T03:52:46.134Z,6.70
2019-04-05T03:55:27.064Z,6.70
2019-04-05T03:58:07.589Z,6.60
2019-04-05T04:00:48.120Z,6.60
2019-04-05T04:03:28.586Z,6.70
2019-04-05T04:06:09.221Z,6.70
2019-04-05T04:08:49.843Z,6.80
2019-04-05T04:11:30.734Z,6.90
2019-04-05T04:14:10.976Z,7.00
2019-04-05T04:16:51.823Z,7.10
2019-04-05T04:19:32.811Z,7.20
2019-04-05T04:22:13.541Z,7.20
2019-04-05T04:24:54.051Z,7.20
2019-04-05T04:27:34.729Z,7.20
2019-04-05T04:30:14.990Z,7.30
2019-04-05T04:32:55.724Z,7.30
2019-04-05T04:35:36.569Z,7.40
2019-04-05T04:38:17.139Z,7.40
2019-04-05T04:40:57.777Z,7.40
2019-04-05T04:43:38.280Z,7.40
2019-04-05T04:46:18.966Z,7.50
2019-04-05T04:48:59.736Z,7.50
2019-04-05T04:51:40.387Z,7.50
2019-04-05T04:54:20.863Z,7.50
2019-04-05T04:57:01.226Z,7.50
2019-04-05T04:59:42.070Z,7.60
2019-04-05T05:02:22.775Z,7.60
2019-04-05T05:05:03.339Z,7.60
2019-04-05T05:07:43.751Z,7.60
2019-04-05T05:10:24.176Z,7.60
2019-04-05T05:13:04.962Z,7.60
2019-04-05T05:15:46.099Z,7.60
2019-04-05T05:18:26.814Z,7.60
2019-04-05T05:21:07.207Z,7.60
2019-04-05T05:23:48.247Z,7.60
2019-04-05T05:26:28.876Z,7.60
2019-04-05T05:29:09.497Z,7.60
2019-04-05T05:31:50.511Z,7.60
2019-04-05T05:34:31.212Z,7.60
2019-04-05T05:37:11.716Z,7.70
2019-04-05T05:39:52.666Z,7.70
2019-04-05T05:42:33.719Z,7.70
2019-04-05T05:45:14.287Z,7.60
2019-04-05T05:47:55.348Z,7.60
2019-04-05T05:50:35.747Z,7.50
2019-04-05T05:53:16.556Z,7.40
2019-04-05T05:55:57.465Z,7.40
2019-04-05T05:58:38.219Z,7.40
2019-04-05T06:01:18.903Z,7.30
2019-04-05T06:03:59.703Z,7.30
2019-04-05T06:06:40.135Z,7.30
2019-04-05T06:09:24.227Z,7.40
2019-04-05T06:12:04.908Z,7.40
2019-04-05T06:14:45.494Z,7.50
2019-04-05T06:17:26.191Z,7.60
2019-04-05T06:20:06.995Z,7.60
2019-04-05T06:22:48.099Z,7.60
2019-04-05T06:25:28.963Z,7.70
2019-04-05T06:28:09.471Z,7.70
2019-04-05T06:30:50.051Z,7.80
2019-04-05T06:33:31.979Z,7.80
2019-04-05T06:36:12.927Z,7.90
2019-04-05T06:38:53.634Z,7.90
2019-04-05T06:41:34.111Z,8.00
2019-04-05T06:44:15.217Z,8.10
2019-04-05T06:46:56.177Z,8.10
2019-04-05T06:49:37.359Z,8.10
2019-04-05T06:52:17.731Z,8.00
2019-04-05T06:54:58.695Z,7.90
2019-04-05T06:57:39.406Z,7.90
2019-04-05T07:00:20.393Z,8.00
2019-04-05T07:03:01.191Z,8.10
2019-04-05T07:05:43.376Z,8.20
2019-04-05T07:08:24.404Z,8.30
2019-04-05T07:11:04.859Z,8.30
2019-04-05T07:13:45.479Z,8.50
2019-04-05T07:16:25.932Z,8.60
2019-04-05T07:19:06.251Z,8.80
2019-04-05T07:21:46.803Z,8.90
2019-04-05T07:24:27.674Z,9.10
2019-04-05T07:27:08.392Z,9.20
2019-04-05T07:29:49.483Z,9.40
2019-04-05T07:32:31.369Z,9.50
2019-04-05T07:35:12.791Z,9.60
2019-04-05T07:37:53.851Z,9.70
2019-04-05T07:40:34.283Z,9.80
2019-04-05T07:43:15.398Z,9.90
2019-04-05T07:45:55.645Z,10.00
2019-04-05T07:48:44.647Z,10.10
2019-04-05T07:51:18.607Z,10.10
2019-04-05T07:53:59.565Z,10.10
2019-04-05T07:56:40.584Z,10.10
2019-04-05T07:59:21.193Z,10.20
2019-04-05T08:02:01.953Z,10.20
2019-04-05T08:04:42.640Z,10.30
2019-04-05T08:07:23.231Z,10.40
2019-04-05T08:10:04.052Z,10.50
2019-04-05T08:12:44.843Z,10.50
2019-04-05T08:15:25.619Z,10.50
2019-04-05T08:18:06.187Z,10.40
2019-04-05T08:20:46.807Z,10.50
2019-04-05T08:23:27.936Z,10.50
2019-04-05T08:26:08.804Z,10.60
2019-04-05T08:28:49.143Z,10.60
2019-04-05T08:31:29.551Z,10.60
2019-04-05T08:34:10.215Z,10.70
2019-04-05T08:36:54.114Z,10.70
2019-04-05T08:39:34.287Z,10.70
2019-04-05T08:42:14.924Z,10.70
2019-04-05T08:44:55.423Z,10.80
2019-04-05T08:47:35.920Z,10.80
2019-04-05T08:50:16.890Z,10.80
2019-04-05T08:52:57.287Z,10.90
2019-04-05T08:55:37.911Z,10.90
2019-04-05T08:58:18.467Z,11.00
2019-04-05T09:00:59.119Z,11.00
2019-04-05T09:03:39.749Z,11.10
2019-04-05T09:06:20.545Z,11.20
2019-04-05T09:09:01.172Z,11.20
2019-04-05T09:11:41.591Z,11.20
2019-04-05T09:14:22.475Z,11.30
2019-04-05T09:17:03.307Z,11.30
2019-04-05T09:19:43.735Z,11.40
2019-04-05T09:22:24.332Z,11.20
2019-04-05T09:25:04.844Z,11.10
2019-04-05T09:27:45.363Z,11.20
2019-04-05T09:30:26.007Z,11.00
2019-04-05T09:33:06.729Z,11.10
2019-04-05T09:35:47.121Z,10.90
2019-04-05T09:38:28.099Z,10.80
2019-04-05T09:41:08.684Z,10.90
2019-04-05T09:43:49.467Z,10.90
2019-04-05T09:46:30.062Z,10.90
2019-04-05T09:49:10.503Z,11.10
2019-04-05T09:51:51.138Z,11.20
2019-04-05T09:54:31.839Z,11.30
2019-04-05T09:57:13.021Z,11.40
2019-04-05T09:59:53.504Z,11.50
2019-04-05T10:02:34.474Z,11.60
2019-04-05T10:05:14.930Z,11.60
2019-04-05T10:07:56.009Z,11.70
2019-04-05T10:10:36.703Z,11.50
2019-04-05T10:13:17.395Z,11.50
2019-04-05T10:15:57.899Z,11.30
2019-04-05T10:18:38.634Z,11.00
2019-04-05T10:21:19.331Z,11.10
2019-04-05T10:24:00.191Z,11.10
2019-04-05T10:26:40.800Z,11.20
2019-04-05T10:29:21.418Z,11.30
2019-04-05T10:32:02.754Z,11.60
2019-04-05T10:34:43.902Z,11.80
2019-04-05T10:37:24.601Z,12.10
2019-04-05T10:40:05.887Z,12.30
2019-04-05T10:42:46.824Z,12.50
2019-04-05T10:45:27.522Z,12.70
2019-04-05T10:48:08.671Z,13.00
2019-04-05T10:50:49.202Z,13.20
2019-04-05T10:53:29.959Z,13.50
2019-04-05T10:56:10.303Z,13.80
2019-04-05T10:58:51.050Z,14.00
2019-04-05T11:01:31.720Z,14.10
2019-04-05T11:04:12.363Z,14.20
2019-04-05T11:06:53.364Z,14.20
2019-04-05T11:09:33.991Z,14.10
2019-04-05T11:12:14.683Z,14.00
2019-04-05T11:14:55.352Z,14.10
2019-04-05T11:17:35.843Z,14.00
2019-04-05T11:20:22.992Z,14.00
2019-04-05T11:22:58.991Z,14.00
2019-04-05T11:25:39.511Z,14.10
2019-04-05T11:28:20.603Z,14.30
2019-04-05T11:31:01.247Z,14.40
2019-04-05T11:33:42.013Z,14.60
2019-04-05T11:36:22.611Z,14.70
2019-04-05T11:39:05.435Z,14.90
2019-04-05T11:41:46.539Z,15.00
2019-04-05T11:44:27.475Z,15.10
2019-04-05T11:47:08.074Z,15.10
2019-04-05T11:49:48.995Z,14.90
2019-04-05T11:52:29.832Z,14.70
2019-04-05T11:55:10.939Z,14.50
2019-04-05T11:57:54.633Z,14.40
2019-04-05T12:03:29.586Z,14.20
2019-04-05T12:06:10.584Z,14.00
2019-04-05T12:08:51.139Z,14.00
2019-04-05T12:11:31.875Z,13.90
2019-04-05T12:14:12.475Z,13.90
2019-04-05T12:16:53.155Z,13.90
2019-04-05T12:19:33.659Z,14.00
2019-04-05T12:22:14.263Z,14.00
2019-04-05T12:24:54.911Z,14.10
2019-04-05T12:27:35.643Z,14.20
2019-04-05T12:30:18.247Z,14.30
2019-04-05T12:33:12.723Z,14.40
2019-04-05T12:35:42.066Z,14.40
2019-04-05T12:38:42.207Z,14.00
2019-04-05T12:41:22.434Z,13.90
2019-04-05T12:44:03.163Z,14.00
2019-04-05T12:46:45.903Z,14.00
2019-04-05T12:49:26.591Z,14.00
2019-04-05T12:52:07.170Z,14.00
2019-04-05T12:54:50.422Z,13.90
2019-04-05T12:57:30.547Z,14.00
2019-04-05T13:00:13.338Z,13.90
2019-04-05T13:02:56.833Z,13.90
2019-04-05T13:05:36.544Z,13.80
2019-04-05T13:08:17.415Z,13.80
2019-04-05T13:10:57.782Z,13.70
2019-04-05T13:13:38.323Z,13.60
2019-04-05T13:16:18.819Z,13.50
2019-04-05T13:19:00.570Z,13.40
2019-04-05T13:21:47.494Z,13.30
2019-04-05T13:24:35.540Z,13.40
2019-04-05T13:27:23.592Z,13.30
2019-04-05T13:30:12.260Z,13.30
2019-04-05T13:32:59.991Z,13.10
2019-04-05T13:35:47.707Z,13.00
2019-04-05T13:38:35.434Z,12.90
2019-04-05T13:41:23.763Z,12.80
2019-04-05T13:44:11.821Z,12.80
2019-04-05T13:46:59.539Z,12.80
2019-04-05T13:49:47.521Z,12.70
2019-04-05T13:52:35.566Z,12.70
2019-04-05T13:55:23.527Z,12.60
2019-04-05T13:58:12.074Z,12.60
2019-04-05T14:01:01.272Z,12.60
2019-04-05T14:03:50.243Z,12.50
2019-04-05T14:06:29.379Z,12.40
2019-04-05T14:09:17.107Z,12.30
2019-04-05T14:12:04.895Z,12.00
2019-04-05T14:14:52.619Z,11.80
2019-04-05T14:17:44.017Z,11.80
2019-04-05T14:20:29.862Z,11.70
2019-04-05T14:23:17.588Z,11.80
2019-04-05T14:26:05.679Z,11.80
2019-04-05T14:28:53.740Z,11.80
2019-04-05T14:31:41.450Z,11.80
2019-04-05T14:34:29.426Z,11.90
2019-04-05T14:37:17.150Z,11.90
2019-04-05T14:40:28.369Z,12.00
2019-04-05T14:43:15.749Z,12.00
2019-04-05T14:46:04.840Z,12.00
2019-04-05T14:48:52.599Z,12.00
2019-04-05T14:51:52.224Z,12.10
2019-04-05T14:54:30.439Z,12.10
2019-04-05T14:57:19.238Z,12.10
2019-04-05T15:00:27.924Z,12.20
2019-04-05T15:03:15.636Z,12.10
2019-04-05T15:06:03.368Z,12.20
2019-04-05T15:08:43.763Z,12.20
2019-04-05T15:11:24.588Z,12.20
2019-04-05T15:14:07.383Z,12.10
2019-04-05T15:16:48.464Z,12.10
2019-04-05T15:19:28.983Z,12.10
2019-04-05T15:22:11.762Z,12.10
2019-04-05T15:24:52.404Z,12.10
2019-04-05T15:27:33.035Z,12.10
2019-04-05T15:30:15.234Z,12.00
2019-04-05T15:32:58.438Z,12.00
2019-04-05T15:35:38.995Z,11.90
2019-04-05T15:38:19.739Z,11.90
2019-04-05T15:41:00.499Z,11.90
2019-04-05T15:43:41.548Z,11.90
2019-04-05T15:46:22.123Z,11.90
2019-04-05T15:49:03.063Z,11.90
2019-04-05T15:51:43.607Z,11.80
2019-04-05T15:54:24.328Z,11.80
2019-04-05T15:57:05.148Z,11.80
2019-04-05T15:59:45.463Z,11.80
2019-04-05T16:02:26.247Z,11.80
2019-04-05T16:05:07.323Z,11.80
2019-04-05T16:07:48.275Z,11.80
2019-04-05T16:10:29.220Z,11.80
2019-04-05T16:13:09.859Z,11.60
2019-04-05T16:15:53.740Z,11.60
2019-04-05T16:18:34.670Z,11.60
2019-04-05T16:21:15.872Z,11.60
2019-04-05T16:23:56.632Z,11.50
2019-04-05T16:26:37.354Z,11.50
2019-04-05T16:29:17.839Z,11.50
2019-04-05T16:31:58.175Z,11.50
2019-04-05T16:34:38.679Z,11.40
2019-04-05T16:37:19.312Z,11.40
2019-04-05T16:40:00.147Z,11.40
2019-04-05T16:42:41.028Z,11.40
2019-04-05T16:45:21.667Z,11.40
2019-04-05T16:48:02.278Z,11.40
2019-04-05T16:50:43.081Z,11.30
2019-04-05T16:53:23.751Z,11.30
2019-04-05T16:56:04.101Z,11.30
2019-04-05T16:58:45.165Z,11.20
2019-04-05T17:01:27.271Z,11.10
2019-04-05T17:04:07.907Z,11.20
2019-04-05T17:06:48.441Z,11.10
2019-04-05T17:09:28.999Z,11.10
2019-04-05T17:12:10.256Z,11.00
2019-04-05T17:14:51.251Z,11.00
2019-04-05T17:17:31.980Z,11.00
2019-04-05T17:22:58.366Z,11.00
2019-04-05T17:25:39.224Z,10.90
2019-04-05T17:28:23.246Z,10.90
2019-04-05T17:31:04.091Z,10.90
2019-04-05T17:33:44.848Z,10.90
2019-04-05T17:36:25.439Z,10.90
2019-04-05T17:39:06.837Z,10.80
2019-04-05T17:41:47.519Z,10.80
2019-04-05T17:44:28.207Z,10.80
2019-04-05T17:47:08.897Z,10.70
2019-04-05T17:49:49.544Z,10.80
2019-04-05T17:52:30.136Z,10.70
2019-04-05T17:55:11.144Z,10.70
2019-04-05T17:57:51.856Z,10.70
2019-04-05T18:00:32.743Z,10.60
2019-04-05T18:03:13.591Z,10.60
2019-04-05T18:05:54.506Z,10.60
2019-04-05T18:08:35.479Z,10.60
2019-04-05T18:11:16.128Z,10.60
2019-04-05T18:13:57.107Z,10.60
2019-04-05T18:16:37.606Z,10.60
2019-04-05T18:19:18.627Z,10.60
2019-04-05T18:21:59.511Z,10.60
2019-04-05T18:24:40.089Z,10.60
2019-04-05T18:27:20.933Z,10.60
2019-04-05T18:30:01.913Z,10.60
2019-04-05T18:32:42.423Z,10.50
2019-04-05T18:35:23.116Z,10.50
2019-04-05T18:38:03.767Z,10.50
2019-04-05T18:40:44.276Z,10.40
2019-04-05T18:43:25.203Z,10.40
2019-04-05T18:46:05.890Z,10.40
2019-04-05T18:48:46.737Z,10.30
2019-04-05T18:51:27.471Z,10.20
2019-04-05T18:54:07.680Z,10.20
2019-04-05T18:56:48.443Z,10.20
2019-04-05T18:59:29.800Z,10.20
2019-04-05T19:02:10.447Z,10.30
2019-04-05T19:04:51.152Z,10.10
2019-04-05T19:10:15.723Z,10.10
2019-04-05T19:12:59.200Z,10.10
2019-04-05T19:15:39.218Z,10.10
2019-04-05T19:18:20.088Z,10.10
2019-04-05T19:21:00.455Z,10.10
2019-04-05T19:23:50.707Z,10.10
2019-04-05T19:26:23.975Z,10.10
2019-04-05T19:29:04.667Z,10.10
2019-04-05T19:50:41.940Z,10.20
2019-04-05T19:53:22.295Z,10.20
2019-04-05T19:56:02.595Z,10.10
2019-04-05T19:58:43.259Z,10.10
2019-04-05T20:01:23.772Z,10.00
2019-04-05T20:04:04.123Z,9.90
2019-04-05T20:06:44.662Z,9.90
2019-04-05T20:09:25.262Z,9.80
2019-04-05T20:12:05.756Z,9.80
2019-04-05T20:14:46.125Z,9.80
2019-04-05T20:17:26.575Z,9.80
2019-04-05T20:20:07.184Z,9.90
2019-04-05T20:22:47.602Z,9.80
2019-04-05T20:25:28.443Z,9.80
2019-04-05T20:28:08.867Z,9.80
2019-04-05T20:30:49.311Z,9.80
2019-04-05T20:33:30.098Z,9.80
2019-04-05T20:36:10.739Z,9.70
2019-04-05T20:38:51.406Z,9.80
2019-04-05T20:41:31.862Z,9.80
2019-04-05T20:44:12.431Z,9.80
2019-04-05T20:46:53.219Z,9.90
2019-04-05T20:49:34.382Z,9.90
2019-04-05T20:52:15.075Z,10.00
2019-04-05T20:54:55.893Z,9.90
2019-04-05T20:57:36.260Z,9.90
2019-04-05T21:00:17.302Z,9.90
2019-04-05T21:02:57.816Z,10.00
2019-04-05T21:05:38.843Z,10.00
2019-04-05T21:08:19.413Z,10.00
2019-04-05T21:11:00.324Z,10.00
2019-04-05T21:13:41.000Z,10.10
2019-04-05T21:16:21.819Z,10.10
2019-04-05T21:19:04.861Z,10.10
2019-04-05T21:21:45.030Z,10.10
2019-04-05T21:24:35.730Z,10.10
2019-04-05T21:27:08.179Z,10.10
2019-04-05T21:29:48.555Z,10.10
2019-04-05T21:32:29.372Z,10.10
2019-04-05T21:35:09.615Z,10.20
2019-04-05T21:37:50.119Z,10.20
2019-04-05T21:40:30.555Z,10.20
2019-04-05T21:43:11.048Z,10.20
2019-04-05T21:45:51.303Z,10.20
2019-04-05T21:48:32.124Z,10.20
2019-04-05T21:51:12.688Z,10.20
2019-04-05T21:53:53.251Z,10.20
2019-04-05T21:56:33.599Z,10.20
2019-04-05T21:59:14.087Z,10.20
2019-04-05T22:01:54.743Z,10.20
2019-04-05T22:04:36.074Z,10.20
2019-04-05T22:07:16.882Z,10.20
2019-04-05T22:09:57.663Z,10.20
2019-04-05T22:12:38.455Z,10.10
2019-04-05T22:15:19.067Z,10.10
2019-04-05T22:17:59.640Z,10.10
2019-04-05T22:20:40.145Z,10.10
2019-04-05T22:23:20.495Z,10.10
2019-04-05T22:26:00.887Z,10.20
2019-04-05T22:28:41.472Z,10.10
2019-04-05T22:31:21.891Z,10.10
2019-04-05T22:34:02.447Z,10.10
2019-04-05T22:36:43.043Z,10.10
2019-04-05T22:39:23.455Z,10.10
2019-04-05T22:42:04.011Z,10.10
2019-04-05T22:44:44.956Z,10.10
2019-04-05T22:47:25.151Z,10.10
2019-04-05T22:50:06.015Z,10.10
2019-04-05T22:52:46.553Z,10.00
2019-04-05T22:55:27.292Z,10.00
2019-04-05T22:58:07.754Z,10.00
2019-04-05T23:00:48.601Z,9.90
2019-04-05T23:03:29.378Z,9.90
2019-04-05T23:06:09.896Z,9.80
2019-04-05T23:08:50.745Z,9.80
2019-04-05T23:11:31.325Z,9.70
2019-04-05T23:14:11.643Z,9.70
2019-04-05T23:16:52.056Z,9.60
2019-04-05T23:19:32.780Z,9.60
2019-04-05T23:22:13.220Z,9.50
2019-04-05T23:24:53.757Z,9.50
2019-04-05T23:27:34.351Z,9.50
2019-04-05T23:30:14.815Z,9.50
2019-04-05T23:32:55.559Z,9.50
2019-04-05T23:35:36.154Z,9.50
2019-04-05T23:38:16.346Z,9.50
2019-04-05T23:40:57.669Z,9.40
2019-04-05T23:43:38.219Z,9.50
2019-04-05T23:46:18.880Z,9.40
2019-04-05T23:48:59.335Z,9.40
2019-04-05T23:51:39.703Z,9.40
2019-04-05T23:54:20.295Z,9.40
2019-04-05T23:57:01.253Z,9.40
2019-04-05T23:59:41.815Z,9.40
